sensor_id;sensor_type;location;lat;lon;timestamp;P1;durP1;ratioP1;P2;durP2;ratioP2
7583;SDS011;74673;41.756;25.992;2024-01-27T00:02:00;1.50;;;1.50;;
7583;SDS011;74673;41.756;25.992;2024-01-27T00:04:27;2.30;;;1.53;;
7583;SDS011;74673;41.756;25.992;2024-01-27T00:06:54;1.63;;;1.63;;
7583;SDS011;74673;41.756;25.992;2024-01-27T00:09:23;2.13;;;2.03;;
7583;SDS011;74673;41.756;25.992;2024-01-27T00:11:50;1.70;;;1.60;;
7583;SDS011;74673;41.756;25.992;2024-01-27T00:14:17;1.50;;;1.50;;
7583;SDS011;74673;41.756;25.992;2024-01-27T00:16:44;1.73;;;1.63;;
7583;SDS011;74673;41.756;25.992;2024-01-27T00:19:11;1.30;;;1.30;;
7583;SDS011;74673;41.756;25.992;2024-01-27T00:21:38;1.50;;;1.50;;
7583;SDS011;74673;41.756;25.992;2024-01-27T00:24:05;1.53;;;1.53;;
7583;SDS011;74673;41.756;25.992;2024-01-27T00:26:34;1.30;;;1.30;;
7583;SDS011;74673;41.756;25.992;2024-01-27T00:29:01;2.00;;;1.90;;
7583;SDS011;74673;41.756;25.992;2024-01-27T00:31:28;1.63;;;1.63;;
7583;SDS011;74673;41.756;25.992;2024-01-27T00:33:55;1.47;;;1.47;;
7583;SDS011;74673;41.756;25.992;2024-01-27T00:36:22;2.50;;;1.63;;
7583;SDS011;74673;41.756;25.992;2024-01-27T00:38:49;1.40;;;1.30;;
7583;SDS011;74673;41.756;25.992;2024-01-27T00:41:17;1.73;;;1.63;;
7583;SDS011;74673;41.756;25.992;2024-01-27T00:43:46;1.50;;;1.50;;
7583;SDS011;74673;41.756;25.992;2024-01-27T00:46:13;1.90;;;1.80;;
7583;SDS011;74673;41.756;25.992;2024-01-27T00:48:40;1.30;;;1.30;;
7583;SDS011;74673;41.756;25.992;2024-01-27T00:51:07;1.30;;;1.30;;
7583;SDS011;74673;41.756;25.992;2024-01-27T00:53:34;1.70;;;1.60;;
7583;SDS011;74673;41.756;25.992;2024-01-27T00:56:01;1.47;;;1.47;;
7583;SDS011;74673;41.756;25.992;2024-01-27T00:58:28;1.80;;;1.70;;
7583;SDS011;74673;41.756;25.992;2024-01-27T01:00:56;2.87;;;2.20;;
7583;SDS011;74673;41.756;25.992;2024-01-27T01:03:24;1.30;;;1.30;;
7583;SDS011;74673;41.756;25.992;2024-01-27T01:05:51;1.50;;;1.50;;
7583;SDS011;74673;41.756;25.992;2024-01-27T01:08:18;1.47;;;1.47;;
7583;SDS011;74673;41.756;25.992;2024-01-27T01:10:45;1.53;;;1.43;;
7583;SDS011;74673;41.756;25.992;2024-01-27T01:13:12;1.40;;;1.40;;
7583;SDS011;74673;41.756;25.992;2024-01-27T01:15:39;2.10;;;1.50;;
7583;SDS011;74673;41.756;25.992;2024-01-27T01:18:08;1.70;;;1.60;;
7583;SDS011;74673;41.756;25.992;2024-01-27T01:20:35;1.50;;;1.50;;
7583;SDS011;74673;41.756;25.992;2024-01-27T01:23:02;1.67;;;1.60;;
7583;SDS011;74673;41.756;25.992;2024-01-27T01:25:29;1.40;;;1.40;;
7583;SDS011;74673;41.756;25.992;2024-01-27T01:27:57;1.60;;;1.60;;
7583;SDS011;74673;41.756;25.992;2024-01-27T01:30:24;1.50;;;1.50;;
7583;SDS011;74673;41.756;25.992;2024-01-27T01:32:51;1.40;;;1.40;;
7583;SDS011;74673;41.756;25.992;2024-01-27T01:35:20;1.50;;;1.50;;
7583;SDS011;74673;41.756;25.992;2024-01-27T01:37:47;1.57;;;1.57;;
7583;SDS011;74673;41.756;25.992;2024-01-27T01:40:15;1.43;;;1.43;;
7583;SDS011;74673;41.756;25.992;2024-01-27T01:42:42;1.40;;;1.40;;
7583;SDS011;74673;41.756;25.992;2024-01-27T01:45:10;1.87;;;1.33;;
7583;SDS011;74673;41.756;25.992;2024-01-27T01:47:38;1.33;;;1.33;;
7583;SDS011;74673;41.756;25.992;2024-01-27T01:50:06;1.50;;;1.40;;
7583;SDS011;74673;41.756;25.992;2024-01-27T01:52:35;1.43;;;1.43;;
7583;SDS011;74673;41.756;25.992;2024-01-27T01:55:03;1.30;;;1.30;;
7583;SDS011;74673;41.756;25.992;2024-01-27T01:57:31;1.30;;;1.30;;
7583;SDS011;74673;41.756;25.992;2024-01-27T01:59:58;1.30;;;1.30;;
7583;SDS011;74673;41.756;25.992;2024-01-27T02:02:25;1.40;;;1.40;;
7583;SDS011;74673;41.756;25.992;2024-01-27T02:04:52;1.30;;;1.30;;
7583;SDS011;74673;41.756;25.992;2024-01-27T02:07:19;1.73;;;1.73;;
7583;SDS011;74673;41.756;25.992;2024-01-27T02:09:47;2.03;;;1.93;;
7583;SDS011;74673;41.756;25.992;2024-01-27T02:12:14;1.50;;;1.50;;
7583;SDS011;74673;41.756;25.992;2024-01-27T02:14:42;1.70;;;1.70;;
7583;SDS011;74673;41.756;25.992;2024-01-27T02:17:09;1.50;;;1.40;;
7583;SDS011;74673;41.756;25.992;2024-01-27T02:19:36;1.37;;;1.37;;
7583;SDS011;74673;41.756;25.992;2024-01-27T02:22:03;2.00;;;1.90;;
7583;SDS011;74673;41.756;25.992;2024-01-27T02:24:31;1.20;;;1.20;;
7583;SDS011;74673;41.756;25.992;2024-01-27T02:26:58;5.40;;;1.70;;
7583;SDS011;74673;41.756;25.992;2024-01-27T02:29:26;1.30;;;1.30;;
7583;SDS011;74673;41.756;25.992;2024-01-27T02:31:53;1.77;;;1.67;;
7583;SDS011;74673;41.756;25.992;2024-01-27T02:34:20;1.43;;;1.37;;
7583;SDS011;74673;41.756;25.992;2024-01-27T02:36:47;1.40;;;1.40;;
7583;SDS011;74673;41.756;25.992;2024-01-27T02:39:14;1.40;;;1.40;;
7583;SDS011;74673;41.756;25.992;2024-01-27T02:41:43;4.20;;;1.50;;
7583;SDS011;74673;41.756;25.992;2024-01-27T02:44:10;1.83;;;1.73;;
7583;SDS011;74673;41.756;25.992;2024-01-27T02:46:37;1.40;;;1.40;;
7583;SDS011;74673;41.756;25.992;2024-01-27T02:49:04;1.40;;;1.40;;
7583;SDS011;74673;41.756;25.992;2024-01-27T02:51:31;1.60;;;1.60;;
7583;SDS011;74673;41.756;25.992;2024-01-27T02:53:58;1.40;;;1.40;;
7583;SDS011;74673;41.756;25.992;2024-01-27T02:56:25;1.50;;;1.50;;
7583;SDS011;74673;41.756;25.992;2024-01-27T02:58:54;1.57;;;1.47;;
7583;SDS011;74673;41.756;25.992;2024-01-27T03:01:21;1.77;;;1.67;;
7583;SDS011;74673;41.756;25.992;2024-01-27T03:03:48;1.63;;;1.57;;
7583;SDS011;74673;41.756;25.992;2024-01-27T03:06:15;1.60;;;1.60;;
7583;SDS011;74673;41.756;25.992;2024-01-27T03:08:42;1.67;;;1.67;;
7583;SDS011;74673;41.756;25.992;2024-01-27T03:11:09;1.70;;;1.70;;
7583;SDS011;74673;41.756;25.992;2024-01-27T03:13:36;2.27;;;1.67;;
7583;SDS011;74673;41.756;25.992;2024-01-27T03:16:11;2.13;;;1.77;;
7583;SDS011;74673;41.756;25.992;2024-01-27T03:18:38;1.70;;;1.60;;
7583;SDS011;74673;41.756;25.992;2024-01-27T03:21:06;1.53;;;1.47;;
7583;SDS011;74673;41.756;25.992;2024-01-27T03:23:33;1.50;;;1.50;;
7583;SDS011;74673;41.756;25.992;2024-01-27T03:26:02;1.40;;;1.40;;
7583;SDS011;74673;41.756;25.992;2024-01-27T03:28:29;1.60;;;1.60;;
7583;SDS011;74673;41.756;25.992;2024-01-27T03:30:56;1.50;;;1.50;;
7583;SDS011;74673;41.756;25.992;2024-01-27T03:33:26;1.60;;;1.60;;
7583;SDS011;74673;41.756;25.992;2024-01-27T03:35:55;1.73;;;1.63;;
7583;SDS011;74673;41.756;25.992;2024-01-27T03:38:22;1.30;;;1.30;;
7583;SDS011;74673;41.756;25.992;2024-01-27T03:40:50;1.50;;;1.50;;
7583;SDS011;74673;41.756;25.992;2024-01-27T03:43:17;1.80;;;1.70;;
7583;SDS011;74673;41.756;25.992;2024-01-27T03:45:44;1.50;;;1.50;;
7583;SDS011;74673;41.756;25.992;2024-01-27T03:48:11;1.53;;;1.53;;
7583;SDS011;74673;41.756;25.992;2024-01-27T03:50:40;1.50;;;1.50;;
7583;SDS011;74673;41.756;25.992;2024-01-27T03:53:07;1.40;;;1.40;;
7583;SDS011;74673;41.756;25.992;2024-01-27T03:55:33;1.60;;;1.60;;
7583;SDS011;74673;41.756;25.992;2024-01-27T03:58:00;1.47;;;1.47;;
7583;SDS011;74673;41.756;25.992;2024-01-27T04:00:27;1.60;;;1.60;;
7583;SDS011;74673;41.756;25.992;2024-01-27T04:02:58;1.50;;;1.50;;
7583;SDS011;74673;41.756;25.992;2024-01-27T04:05:25;1.60;;;1.50;;
7583;SDS011;74673;41.756;25.992;2024-01-27T04:07:53;1.63;;;1.60;;
7583;SDS011;74673;41.756;25.992;2024-01-27T04:10:21;1.73;;;1.70;;
7583;SDS011;74673;41.756;25.992;2024-01-27T04:12:48;1.77;;;1.67;;
7583;SDS011;74673;41.756;25.992;2024-01-27T04:15:15;1.57;;;1.47;;
7583;SDS011;74673;41.756;25.992;2024-01-27T04:17:42;1.23;;;1.23;;
7583;SDS011;74673;41.756;25.992;2024-01-27T04:20:09;1.33;;;1.33;;
7583;SDS011;74673;41.756;25.992;2024-01-27T04:22:38;1.63;;;1.63;;
7583;SDS011;74673;41.756;25.992;2024-01-27T04:25:07;1.50;;;1.50;;
7583;SDS011;74673;41.756;25.992;2024-01-27T04:27:36;1.33;;;1.33;;
7583;SDS011;74673;41.756;25.992;2024-01-27T04:30:05;1.40;;;1.40;;
7583;SDS011;74673;41.756;25.992;2024-01-27T04:32:33;1.70;;;1.60;;
7583;SDS011;74673;41.756;25.992;2024-01-27T04:35:00;1.40;;;1.40;;
7583;SDS011;74673;41.756;25.992;2024-01-27T04:37:27;1.40;;;1.40;;
7583;SDS011;74673;41.756;25.992;2024-01-27T04:39:54;1.37;;;1.37;;
7583;SDS011;74673;41.756;25.992;2024-01-27T04:42:22;1.80;;;1.70;;
7583;SDS011;74673;41.756;25.992;2024-01-27T04:44:49;1.27;;;1.27;;
7583;SDS011;74673;41.756;25.992;2024-01-27T04:47:16;1.33;;;1.33;;
7583;SDS011;74673;41.756;25.992;2024-01-27T04:49:43;1.50;;;1.50;;
7583;SDS011;74673;41.756;25.992;2024-01-27T04:52:10;1.93;;;1.80;;
7583;SDS011;74673;41.756;25.992;2024-01-27T04:54:38;1.23;;;1.23;;
7583;SDS011;74673;41.756;25.992;2024-01-27T04:57:05;1.30;;;1.30;;
7583;SDS011;74673;41.756;25.992;2024-01-27T04:59:33;1.40;;;1.40;;
7583;SDS011;74673;41.756;25.992;2024-01-27T05:02:00;1.60;;;1.60;;
7583;SDS011;74673;41.756;25.992;2024-01-27T05:04:27;1.30;;;1.30;;
7583;SDS011;74673;41.756;25.992;2024-01-27T05:06:54;1.53;;;1.53;;
7583;SDS011;74673;41.756;25.992;2024-01-27T05:09:21;1.50;;;1.50;;
7583;SDS011;74673;41.756;25.992;2024-01-27T05:11:48;1.90;;;1.80;;
7583;SDS011;74673;41.756;25.992;2024-01-27T05:14:16;1.57;;;1.57;;
7583;SDS011;74673;41.756;25.992;2024-01-27T05:16:45;1.50;;;1.50;;
7583;SDS011;74673;41.756;25.992;2024-01-27T05:19:12;2.13;;;2.03;;
7583;SDS011;74673;41.756;25.992;2024-01-27T05:21:41;1.97;;;1.87;;
7583;SDS011;74673;41.756;25.992;2024-01-27T05:24:08;1.70;;;1.60;;
7583;SDS011;74673;41.756;25.992;2024-01-27T05:26:35;1.60;;;1.60;;
7583;SDS011;74673;41.756;25.992;2024-01-27T05:29:02;1.50;;;1.50;;
7583;SDS011;74673;41.756;25.992;2024-01-27T05:31:29;1.80;;;1.70;;
7583;SDS011;74673;41.756;25.992;2024-01-27T05:33:57;1.40;;;1.40;;
7583;SDS011;74673;41.756;25.992;2024-01-27T05:36:25;1.63;;;1.57;;
7583;SDS011;74673;41.756;25.992;2024-01-27T05:38:52;1.40;;;1.40;;
7583;SDS011;74673;41.756;25.992;2024-01-27T05:41:19;1.90;;;1.80;;
7583;SDS011;74673;41.756;25.992;2024-01-27T05:43:46;1.50;;;1.50;;
7583;SDS011;74673;41.756;25.992;2024-01-27T05:46:13;1.40;;;1.40;;
7583;SDS011;74673;41.756;25.992;2024-01-27T05:48:40;1.50;;;1.50;;
7583;SDS011;74673;41.756;25.992;2024-01-27T05:51:09;1.40;;;1.40;;
7583;SDS011;74673;41.756;25.992;2024-01-27T05:53:37;2.37;;;2.27;;
7583;SDS011;74673;41.756;25.992;2024-01-27T05:56:04;1.90;;;1.80;;
7583;SDS011;74673;41.756;25.992;2024-01-27T05:58:32;2.07;;;1.97;;
7583;SDS011;74673;41.756;25.992;2024-01-27T06:00:59;2.13;;;2.03;;
7583;SDS011;74673;41.756;25.992;2024-01-27T06:03:26;1.97;;;1.87;;
7583;SDS011;74673;41.756;25.992;2024-01-27T06:05:53;2.03;;;1.93;;
7583;SDS011;74673;41.756;25.992;2024-01-27T06:08:21;2.13;;;2.03;;
7583;SDS011;74673;41.756;25.992;2024-01-27T06:10:49;1.80;;;1.70;;
7583;SDS011;74673;41.756;25.992;2024-01-27T06:13:16;2.37;;;2.27;;
7583;SDS011;74673;41.756;25.992;2024-01-27T06:15:43;1.57;;;1.57;;
7583;SDS011;74673;41.756;25.992;2024-01-27T06:18:10;2.03;;;1.93;;
7583;SDS011;74673;41.756;25.992;2024-01-27T06:20:37;1.63;;;1.63;;
7583;SDS011;74673;41.756;25.992;2024-01-27T06:23:05;1.50;;;1.50;;
7583;SDS011;74673;41.756;25.992;2024-01-27T06:25:34;1.87;;;1.77;;
7583;SDS011;74673;41.756;25.992;2024-01-27T06:28:01;1.70;;;1.70;;
7583;SDS011;74673;41.756;25.992;2024-01-27T06:30:30;1.80;;;1.70;;
7583;SDS011;74673;41.756;25.992;2024-01-27T06:32:57;1.83;;;1.73;;
7583;SDS011;74673;41.756;25.992;2024-01-27T06:35:24;2.40;;;2.20;;
7583;SDS011;74673;41.756;25.992;2024-01-27T06:37:52;1.73;;;1.70;;
7583;SDS011;74673;41.756;25.992;2024-01-27T06:40:19;6.00;;;1.90;;
7583;SDS011;74673;41.756;25.992;2024-01-27T06:42:47;2.57;;;2.37;;
7583;SDS011;74673;41.756;25.992;2024-01-27T06:45:15;4.20;;;2.60;;
7583;SDS011;74673;41.756;25.992;2024-01-27T06:47:42;3.27;;;2.60;;
7583;SDS011;74673;41.756;25.992;2024-01-27T06:50:09;3.70;;;3.33;;
7583;SDS011;74673;41.756;25.992;2024-01-27T06:52:36;3.30;;;3.07;;
7583;SDS011;74673;41.756;25.992;2024-01-27T06:55:04;4.10;;;2.43;;
7583;SDS011;74673;41.756;25.992;2024-01-27T06:57:33;5.43;;;3.90;;
7583;SDS011;74673;41.756;25.992;2024-01-27T07:00:02;4.50;;;2.90;;
7583;SDS011;74673;41.756;25.992;2024-01-27T07:02:30;2.90;;;2.37;;
7583;SDS011;74673;41.756;25.992;2024-01-27T07:04:58;2.73;;;2.53;;
7583;SDS011;74673;41.756;25.992;2024-01-27T07:07:26;4.43;;;3.40;;
7583;SDS011;74673;41.756;25.992;2024-01-27T07:09:54;4.03;;;2.93;;
7583;SDS011;74673;41.756;25.992;2024-01-27T07:12:22;2.87;;;2.67;;
7583;SDS011;74673;41.756;25.992;2024-01-27T07:14:49;5.90;;;3.57;;
7583;SDS011;74673;41.756;25.992;2024-01-27T07:17:18;3.93;;;3.63;;
7583;SDS011;74673;41.756;25.992;2024-01-27T07:19:46;8.40;;;3.43;;
7583;SDS011;74673;41.756;25.992;2024-01-27T07:22:13;3.53;;;3.23;;
7583;SDS011;74673;41.756;25.992;2024-01-27T07:24:40;3.90;;;3.53;;
7583;SDS011;74673;41.756;25.992;2024-01-27T07:27:07;5.93;;;4.10;;
7583;SDS011;74673;41.756;25.992;2024-01-27T07:29:36;3.80;;;3.23;;
7583;SDS011;74673;41.756;25.992;2024-01-27T07:32:03;2.70;;;2.50;;
7583;SDS011;74673;41.756;25.992;2024-01-27T07:34:34;2.87;;;2.63;;
7583;SDS011;74673;41.756;25.992;2024-01-27T07:37:01;2.90;;;2.67;;
7583;SDS011;74673;41.756;25.992;2024-01-27T07:39:29;3.00;;;2.63;;
7583;SDS011;74673;41.756;25.992;2024-01-27T07:41:56;3.50;;;2.90;;
7583;SDS011;74673;41.756;25.992;2024-01-27T07:44:23;2.63;;;2.30;;
7583;SDS011;74673;41.756;25.992;2024-01-27T07:46:51;3.63;;;3.43;;
7583;SDS011;74673;41.756;25.992;2024-01-27T07:49:18;2.40;;;2.30;;
7583;SDS011;74673;41.756;25.992;2024-01-27T07:51:46;5.50;;;3.13;;
7583;SDS011;74673;41.756;25.992;2024-01-27T07:54:14;2.87;;;2.37;;
7583;SDS011;74673;41.756;25.992;2024-01-27T07:56:41;3.33;;;3.03;;
7583;SDS011;74673;41.756;25.992;2024-01-27T07:59:08;3.13;;;2.33;;
7583;SDS011;74673;41.756;25.992;2024-01-27T08:01:39;2.47;;;2.27;;
7583;SDS011;74673;41.756;25.992;2024-01-27T08:04:06;2.40;;;2.30;;
7583;SDS011;74673;41.756;25.992;2024-01-27T08:06:34;2.20;;;2.10;;
7583;SDS011;74673;41.756;25.992;2024-01-27T08:09:02;2.23;;;2.13;;
7583;SDS011;74673;41.756;25.992;2024-01-27T08:11:30;2.77;;;2.67;;
7583;SDS011;74673;41.756;25.992;2024-01-27T08:13:57;2.23;;;2.13;;
7583;SDS011;74673;41.756;25.992;2024-01-27T08:16:24;2.50;;;2.30;;
7583;SDS011;74673;41.756;25.992;2024-01-27T08:18:54;2.07;;;1.97;;
7583;SDS011;74673;41.756;25.992;2024-01-27T08:21:25;1.60;;;1.60;;
7583;SDS011;74673;41.756;25.992;2024-01-27T08:23:52;1.60;;;1.60;;
7583;SDS011;74673;41.756;25.992;2024-01-27T08:26:21;1.60;;;1.60;;
7583;SDS011;74673;41.756;25.992;2024-01-27T08:28:49;3.03;;;1.80;;
7583;SDS011;74673;41.756;25.992;2024-01-27T08:31:16;1.60;;;1.60;;
7583;SDS011;74673;41.756;25.992;2024-01-27T08:33:43;1.50;;;1.50;;
7583;SDS011;74673;41.756;25.992;2024-01-27T08:36:12;1.30;;;1.30;;
7583;SDS011;74673;41.756;25.992;2024-01-27T08:38:40;1.40;;;1.40;;
7583;SDS011;74673;41.756;25.992;2024-01-27T08:41:07;1.30;;;1.30;;
7583;SDS011;74673;41.756;25.992;2024-01-27T08:43:36;1.27;;;1.27;;
7583;SDS011;74673;41.756;25.992;2024-01-27T08:46:03;1.20;;;1.20;;
7583;SDS011;74673;41.756;25.992;2024-01-27T08:48:32;1.20;;;1.20;;
7583;SDS011;74673;41.756;25.992;2024-01-27T08:50:59;1.10;;;1.10;;
7583;SDS011;74673;41.756;25.992;2024-01-27T08:53:26;1.17;;;1.03;;
7583;SDS011;74673;41.756;25.992;2024-01-27T08:55:54;1.00;;;1.00;;
7583;SDS011;74673;41.756;25.992;2024-01-27T08:58:21;1.00;;;1.00;;
7583;SDS011;74673;41.756;25.992;2024-01-27T09:00:50;0.87;;;0.87;;
7583;SDS011;74673;41.756;25.992;2024-01-27T09:03:18;0.97;;;0.97;;
7583;SDS011;74673;41.756;25.992;2024-01-27T09:05:45;1.30;;;1.20;;
7583;SDS011;74673;41.756;25.992;2024-01-27T09:08:13;0.90;;;0.90;;
7583;SDS011;74673;41.756;25.992;2024-01-27T09:10:41;1.10;;;1.00;;
7583;SDS011;74673;41.756;25.992;2024-01-27T09:13:08;1.00;;;1.00;;
7583;SDS011;74673;41.756;25.992;2024-01-27T09:15:35;1.10;;;1.10;;
7583;SDS011;74673;41.756;25.992;2024-01-27T09:18:04;0.90;;;0.90;;
7583;SDS011;74673;41.756;25.992;2024-01-27T09:20:32;1.00;;;1.00;;
7583;SDS011;74673;41.756;25.992;2024-01-27T09:22:59;1.00;;;1.00;;
7583;SDS011;74673;41.756;25.992;2024-01-27T09:25:26;1.00;;;1.00;;
7583;SDS011;74673;41.756;25.992;2024-01-27T09:27:55;1.10;;;1.10;;
7583;SDS011;74673;41.756;25.992;2024-01-27T09:30:26;0.80;;;0.80;;
7583;SDS011;74673;41.756;25.992;2024-01-27T09:32:53;1.07;;;1.07;;
7583;SDS011;74673;41.756;25.992;2024-01-27T09:35:22;1.00;;;1.00;;
7583;SDS011;74673;41.756;25.992;2024-01-27T09:37:52;1.00;;;1.00;;
7583;SDS011;74673;41.756;25.992;2024-01-27T09:40:19;1.20;;;1.20;;
7583;SDS011;74673;41.756;25.992;2024-01-27T09:42:49;1.10;;;1.10;;
7583;SDS011;74673;41.756;25.992;2024-01-27T09:45:18;1.00;;;1.00;;
7583;SDS011;74673;41.756;25.992;2024-01-27T09:47:49;1.17;;;1.10;;
7583;SDS011;74673;41.756;25.992;2024-01-27T09:50:19;0.80;;;0.80;;
7583;SDS011;74673;41.756;25.992;2024-01-27T09:52:50;0.90;;;0.83;;
7583;SDS011;74673;41.756;25.992;2024-01-27T09:55:17;1.10;;;1.10;;
7583;SDS011;74673;41.756;25.992;2024-01-27T09:57:44;0.90;;;0.90;;
7583;SDS011;74673;41.756;25.992;2024-01-27T10:00:12;0.80;;;0.80;;
7583;SDS011;74673;41.756;25.992;2024-01-27T10:02:41;0.90;;;0.90;;
7583;SDS011;74673;41.756;25.992;2024-01-27T10:05:09;0.90;;;0.90;;
7583;SDS011;74673;41.756;25.992;2024-01-27T10:07:39;0.90;;;0.90;;
7583;SDS011;74673;41.756;25.992;2024-01-27T10:10:07;0.80;;;0.80;;
7583;SDS011;74673;41.756;25.992;2024-01-27T10:12:35;1.00;;;1.00;;
7583;SDS011;74673;41.756;25.992;2024-01-27T10:15:05;1.00;;;1.00;;
7583;SDS011;74673;41.756;25.992;2024-01-27T10:17:33;1.17;;;1.17;;
7583;SDS011;74673;41.756;25.992;2024-01-27T10:20:03;0.97;;;0.97;;
7583;SDS011;74673;41.756;25.992;2024-01-27T10:30:44;3.10;;;2.10;;
7583;SDS011;74673;41.756;25.992;2024-01-27T10:33:13;4.77;;;2.70;;
7583;SDS011;74673;41.756;25.992;2024-01-27T10:35:41;3.07;;;2.60;;
7583;SDS011;74673;41.756;25.992;2024-01-27T10:38:09;2.30;;;2.20;;
7583;SDS011;74673;41.756;25.992;2024-01-27T10:40:36;2.73;;;2.53;;
7583;SDS011;74673;41.756;25.992;2024-01-27T10:43:04;6.00;;;3.07;;
7583;SDS011;74673;41.756;25.992;2024-01-27T10:45:34;3.23;;;2.50;;
7583;SDS011;74673;41.756;25.992;2024-01-27T10:48:05;4.10;;;2.83;;
7583;SDS011;74673;41.756;25.992;2024-01-27T10:50:35;2.77;;;2.50;;
7583;SDS011;74673;41.756;25.992;2024-01-27T10:53:08;3.17;;;2.83;;
7583;SDS011;74673;41.756;25.992;2024-01-27T10:55:36;3.57;;;3.30;;
7583;SDS011;74673;41.756;25.992;2024-01-27T10:58:04;3.17;;;2.47;;
7583;SDS011;74673;41.756;25.992;2024-01-27T11:00:31;4.67;;;3.43;;
7583;SDS011;74673;41.756;25.992;2024-01-27T11:02:59;11.13;;;5.43;;
7583;SDS011;74673;41.756;25.992;2024-01-27T11:05:31;6.20;;;4.53;;
7583;SDS011;74673;41.756;25.992;2024-01-27T11:08:01;5.20;;;3.67;;
7583;SDS011;74673;41.756;25.992;2024-01-27T11:10:29;4.53;;;3.40;;
7583;SDS011;74673;41.756;25.992;2024-01-27T11:13:01;3.03;;;2.83;;
7583;SDS011;74673;41.756;25.992;2024-01-27T11:15:29;6.13;;;2.77;;
7583;SDS011;74673;41.756;25.992;2024-01-27T11:17:57;6.00;;;4.27;;
7583;SDS011;74673;41.756;25.992;2024-01-27T11:20:25;4.57;;;4.10;;
7583;SDS011;74673;41.756;25.992;2024-01-27T11:22:53;3.43;;;3.00;;
7583;SDS011;74673;41.756;25.992;2024-01-27T11:25:23;4.63;;;3.80;;
7583;SDS011;74673;41.756;25.992;2024-01-27T11:27:50;2.33;;;2.13;;
7583;SDS011;74673;41.756;25.992;2024-01-27T11:30:24;2.50;;;2.30;;
7583;SDS011;74673;41.756;25.992;2024-01-27T11:32:54;3.33;;;2.97;;
7583;SDS011;74673;41.756;25.992;2024-01-27T11:35:21;7.30;;;2.63;;
7583;SDS011;74673;41.756;25.992;2024-01-27T11:37:49;2.37;;;2.10;;
7583;SDS011;74673;41.756;25.992;2024-01-27T11:40:17;2.73;;;2.50;;
7583;SDS011;74673;41.756;25.992;2024-01-27T11:42:53;4.30;;;2.27;;
7583;SDS011;74673;41.756;25.992;2024-01-27T11:45:21;6.50;;;2.60;;
7583;SDS011;74673;41.756;25.992;2024-01-27T11:47:48;3.83;;;2.73;;
7583;SDS011;74673;41.756;25.992;2024-01-27T11:50:16;3.30;;;2.87;;
7583;SDS011;74673;41.756;25.992;2024-01-27T11:52:43;2.43;;;2.23;;
7583;SDS011;74673;41.756;25.992;2024-01-27T11:55:11;4.60;;;2.57;;
7583;SDS011;74673;41.756;25.992;2024-01-27T11:57:41;2.20;;;2.10;;
7583;SDS011;74673;41.756;25.992;2024-01-27T12:00:09;2.43;;;2.23;;
7583;SDS011;74673;41.756;25.992;2024-01-27T12:02:36;2.93;;;2.03;;
7583;SDS011;74673;41.756;25.992;2024-01-27T12:05:04;2.77;;;2.57;;
7583;SDS011;74673;41.756;25.992;2024-01-27T12:07:31;2.37;;;2.13;;
7583;SDS011;74673;41.756;25.992;2024-01-27T12:09:59;3.00;;;2.80;;
7583;SDS011;74673;41.756;25.992;2024-01-27T12:12:26;2.93;;;2.30;;
7583;SDS011;74673;41.756;25.992;2024-01-27T12:14:54;6.07;;;2.70;;
7583;SDS011;74673;41.756;25.992;2024-01-27T12:17:22;2.13;;;1.90;;
7583;SDS011;74673;41.756;25.992;2024-01-27T12:19:49;2.37;;;2.17;;
7583;SDS011;74673;41.756;25.992;2024-01-27T12:22:21;5.10;;;4.07;;
7583;SDS011;74673;41.756;25.992;2024-01-27T12:24:50;7.10;;;4.80;;
7583;SDS011;74673;41.756;25.992;2024-01-27T12:27:18;5.43;;;3.90;;
7583;SDS011;74673;41.756;25.992;2024-01-27T12:29:47;5.70;;;3.87;;
7583;SDS011;74673;41.756;25.992;2024-01-27T12:32:16;7.37;;;4.73;;
7583;SDS011;74673;41.756;25.992;2024-01-27T12:34:44;9.07;;;4.30;;
7583;SDS011;74673;41.756;25.992;2024-01-27T12:37:13;6.40;;;4.33;;
7583;SDS011;74673;41.756;25.992;2024-01-27T12:39:43;8.00;;;4.60;;
7583;SDS011;74673;41.756;25.992;2024-01-27T12:42:16;3.97;;;3.63;;
7583;SDS011;74673;41.756;25.992;2024-01-27T12:44:43;7.77;;;4.40;;
7583;SDS011;74673;41.756;25.992;2024-01-27T12:47:18;4.67;;;3.90;;
7583;SDS011;74673;41.756;25.992;2024-01-27T12:49:49;8.07;;;5.07;;
7583;SDS011;74673;41.756;25.992;2024-01-27T12:52:16;10.13;;;4.50;;
7583;SDS011;74673;41.756;25.992;2024-01-27T12:54:43;4.43;;;3.23;;
7583;SDS011;74673;41.756;25.992;2024-01-27T12:57:10;5.63;;;4.27;;
7583;SDS011;74673;41.756;25.992;2024-01-27T12:59:38;8.07;;;4.30;;
7583;SDS011;74673;41.756;25.992;2024-01-27T13:02:05;5.30;;;3.77;;
7583;SDS011;74673;41.756;25.992;2024-01-27T13:04:34;6.57;;;4.73;;
7583;SDS011;74673;41.756;25.992;2024-01-27T13:07:02;5.07;;;3.33;;
7583;SDS011;74673;41.756;25.992;2024-01-27T13:09:29;4.27;;;3.50;;
7583;SDS011;74673;41.756;25.992;2024-01-27T13:11:56;6.03;;;4.53;;
7583;SDS011;74673;41.756;25.992;2024-01-27T13:14:28;4.53;;;3.50;;
7583;SDS011;74673;41.756;25.992;2024-01-27T13:16:56;4.73;;;3.57;;
7583;SDS011;74673;41.756;25.992;2024-01-27T13:19:27;4.80;;;3.30;;
7583;SDS011;74673;41.756;25.992;2024-01-27T13:21:55;4.07;;;3.37;;
7583;SDS011;74673;41.756;25.992;2024-01-27T13:24:23;4.77;;;3.67;;
7583;SDS011;74673;41.756;25.992;2024-01-27T13:26:51;4.50;;;2.80;;
7583;SDS011;74673;41.756;25.992;2024-01-27T13:29:18;3.87;;;3.50;;
7583;SDS011;74673;41.756;25.992;2024-01-27T13:31:48;2.33;;;2.13;;
7583;SDS011;74673;41.756;25.992;2024-01-27T13:34:15;2.00;;;1.90;;
7583;SDS011;74673;41.756;25.992;2024-01-27T13:36:42;6.20;;;2.57;;
7583;SDS011;74673;41.756;25.992;2024-01-27T13:39:11;2.37;;;2.03;;
7583;SDS011;74673;41.756;25.992;2024-01-27T13:41:39;3.20;;;2.83;;
7583;SDS011;74673;41.756;25.992;2024-01-27T13:44:08;1.67;;;1.30;;
7583;SDS011;74673;41.756;25.992;2024-01-27T13:46:36;1.60;;;1.50;;
7583;SDS011;74673;41.756;25.992;2024-01-27T13:49:03;1.57;;;1.10;;
7583;SDS011;74673;41.756;25.992;2024-01-27T13:51:30;1.33;;;1.27;;
7583;SDS011;74673;41.756;25.992;2024-01-27T13:53:58;1.23;;;1.20;;
7583;SDS011;74673;41.756;25.992;2024-01-27T13:56:26;1.83;;;1.47;;
7583;SDS011;74673;41.756;25.992;2024-01-27T13:58:57;1.63;;;1.53;;
7583;SDS011;74673;41.756;25.992;2024-01-27T14:01:25;1.23;;;1.23;;
7583;SDS011;74673;41.756;25.992;2024-01-27T14:03:56;1.13;;;1.03;;
7583;SDS011;74673;41.756;25.992;2024-01-27T14:06:23;1.57;;;1.57;;
7583;SDS011;74673;41.756;25.992;2024-01-27T14:08:51;1.63;;;1.47;;
7583;SDS011;74673;41.756;25.992;2024-01-27T14:11:18;1.73;;;1.63;;
7583;SDS011;74673;41.756;25.992;2024-01-27T14:13:50;1.60;;;1.50;;
7583;SDS011;74673;41.756;25.992;2024-01-27T14:16:17;1.30;;;1.30;;
7583;SDS011;74673;41.756;25.992;2024-01-27T14:18:49;1.50;;;1.40;;
7583;SDS011;74673;41.756;25.992;2024-01-27T14:21:20;1.40;;;1.30;;
7583;SDS011;74673;41.756;25.992;2024-01-27T14:23:47;1.30;;;1.30;;
7583;SDS011;74673;41.756;25.992;2024-01-27T14:26:15;1.57;;;1.47;;
7583;SDS011;74673;41.756;25.992;2024-01-27T14:28:42;1.40;;;1.40;;
7583;SDS011;74673;41.756;25.992;2024-01-27T14:31:11;1.40;;;1.30;;
7583;SDS011;74673;41.756;25.992;2024-01-27T14:33:38;1.40;;;1.30;;
7583;SDS011;74673;41.756;25.992;2024-01-27T14:36:06;1.43;;;1.43;;
7583;SDS011;74673;41.756;25.992;2024-01-27T14:39:03;1.97;;;1.60;;
7583;SDS011;74673;41.756;25.992;2024-01-27T14:41:34;1.80;;;1.70;;
7583;SDS011;74673;41.756;25.992;2024-01-27T14:44:03;1.80;;;1.70;;
7583;SDS011;74673;41.756;25.992;2024-01-27T14:46:34;1.30;;;1.30;;
7583;SDS011;74673;41.756;25.992;2024-01-27T14:49:07;1.60;;;1.50;;
7583;SDS011;74673;41.756;25.992;2024-01-27T14:51:37;1.70;;;1.60;;
7583;SDS011;74673;41.756;25.992;2024-01-27T14:54:04;1.63;;;1.57;;
7583;SDS011;74673;41.756;25.992;2024-01-27T14:56:31;2.80;;;2.30;;
7583;SDS011;74673;41.756;25.992;2024-01-27T14:58:59;1.80;;;1.70;;
7583;SDS011;74673;41.756;25.992;2024-01-27T15:01:29;1.40;;;1.40;;